Tiempo atmosférico en la estación meteorológica de Barbastro, Huesca (305 m.)



Fecha
DESCASC
Temp. máxima en grados centígrados (hora)
DESCASC
Temp. mínima en grados centígrados (hora)
DESCASC
Temp. media en grados centígrados
DESCASC
Racha de viento máxima en m/sg (hora)
DESCASC
Velocidad máxima media en intervalos de 10 minutos(hora)
DESCASC
Precipitaciones diarias en mm
DESCASC
Precipitaciones de 00:00 a 06:00 en mm
DESCASC
Precipitaciones de 06:00 a 12:00 en mm
DESCASC
Precipitaciones de 12:00 a 18:00 en mm
DESCASC
Precipitaciones de 18:00 a 24:00 en mm
DESCASC
30-12-2019 -- (--) -- (--) -- -- (--) -- (--) -- 0 0 0 --
31-12-2019 -- (--) -- (--) -- -- (--) -- (--) -- -- -- 0 --
13-01-2020 2 (16:20) -4.3 (-00:0) -1.2 2.22 (11:40) 1.39 (02:40) 0 0 0 0 0
12-01-2020 2.8 (14:20) -4.3 (-00:0) -0.8 3.33 (21:20) 2.22 (21:20) 0 0 0 0 0
14-01-2020 5.4 (16:20) -4.6 (-00:0) 0.4 3.61 (15:30) 1.94 (16:30) 0 0 0 0 0
15-01-2020 8.5 (15:20) -4.8 (-00:0) 1.8 4.44 (13:20) 2.22 (13:10) 0 0 0 0 0
03-01-2020 2.9 (14:30) 0.9 (00:00) 1.9 4.17 (22:20) 2.22 (21:30) 0 0 0 0 0
11-01-2020 6.9 (15:10) -2.9 (-00:0) 2 3.33 (09:30) 2.22 (16:00) 0 0 0 0 0
04-01-2020 3.4 (22:20) 0.6 (00:00) 2 3.33 (03:50) 1.67 (04:00) 0 0 0 0 0
02-01-2020 2.8 (15:10) 1.3 (00:00) 2 3.33 (10:50) 1.67 (09:40) 0 0 0 0 0
09-01-2020 6.4 (14:50) -2.3 (-00:0) 2.1 3.61 (13:20) 2.22 (15:00) 0 0 0 0 0
05-01-2020 4.1 (15:00) 0.8 (00:00) 2.4 3.61 (09:00) 2.22 (09:00) 0 0 0 0 0
29-12-2019 5.6 (14:40) -0.7 (-00:0) 2.4 3.61 (09:30) 2.5 (09:30) 0 0 0 0 0
28-12-2019 4.6 (15:20) 1.8 (00:00) 3.2 3.61 (00:20) 2.5 (04:20) 0 0 0 0 0
01-01-2020 4.2 (00:10) 2.4 (00:00) 3.3 3.33 (04:00) 1.94 (03:20) 0 0 0 0 0
07-01-2020 4.5 (00:00) 2.6 (00:00) 3.5 3.33 (00:40) 2.22 (00:30) 0.2 0.2 0 0 0
06-01-2020 9.6 (12:40) -1.6 (-00:0) 4 4.17 (13:10) 2.5 (13:50) 0 0 0 0 0
25-12-2019 8.5 (14:50) 0.6 (00:00) 4.6 3.33 (14:40) 1.94 (14:40) 0 0 0 0 0
08-01-2020 8.9 (15:50) 0.8 (00:00) 4.8 3.06 (21:50) 1.67 (02:10) 0 0 0 0 0
10-01-2020 10.1 (14:50) -0.3 (00:00) 4.9 5.28 (15:00) 2.78 (15:20) 0 0 0 0 0
27-12-2019 6.7 (00:00) 3.4 (00:00) 5 3.61 (05:00) 2.22 (05:00) 0 0 0 0 0
16-01-2020 13.7 (15:00) -3 (-00:0) 5.3 3.89 (13:00) 2.22 (13:00) 0 0 0 0 0
26-12-2019 9.5 (15:20) 3.4 (00:00) 6.5 2.78 (16:40) 1.67 (14:00) 0 0 0 0 0
24-12-2019 14.4 (15:00) 0.9 (00:00) 7.6 2.5 (14:50) 1.11 (13:20) 0 0 0 0 0
17-01-2020 14.9 (14:40) 0.7 (00:00) 7.8 12.22 (14:40) 5.28 (14:40) 0.4 0.4 0 0 0
19-12-2019 13 (15:10) 2.6 (04:00) 7.8 6.39 (13:20) 3.89 (10:40) 1.2 0 0 0 1.2
21-12-2019 12 (21:20) 6.2 (00:00) 9.1 10 (21:30) 4.72 (21:20) 7.6 0.8 0.2 4.6 2
23-12-2019 14.5 (14:00) 5 (00:00) 9.8 13.89 (15:10) 7.22 (04:50) 0.2 0.2 0 0 0
22-12-2019 14.2 (14:20) 8.2 (00:00) 11.2 14.17 (04:30) 5.28 (23:20) 0.8 0 0 0.6 0.2
20-12-2019 15.2 (13:20) 9.6 (00:00) 12.4 11.11 (04:40) 5.28 (03:30) 17.2 4.2 10.6 0.4 2

Gráficas

Temp. máximas Temp. mínimas Temp. medias Precipitaciones Rachas de viento máximas Velocidades máximas media en intervalos de 10 minutos

Datos horarios

Fecha y hora oficial Temperatura (ºC) Velocidad del viento (km/h) Dirección del viento Racha (km/h) Dirección de racha Precipitación (mm) Presión (hPa) Tendencia (hPa) Humedad (%)
2020-01-17 23:00:00 2.3 4 Noroeste 10 Sudoeste 0 -- -- 78
2020-01-17 22:00:00 4 5 Noroeste 11 Noroeste 0 -- -- 70
2020-01-17 21:00:00 5.4 4 Noroeste 14 Nordeste 0 -- -- 64
2020-01-17 20:00:00 8.2 6 Noroeste 20 Oeste 0 -- -- 54
2020-01-17 19:00:00 9.1 8 Oeste 21 Noroeste 0 -- -- 51
2020-01-17 18:00:00 10.6 4 Noroeste 22 Noroeste 0 -- -- 48
2020-01-17 17:00:00 12.8 11 Oeste 32 Noroeste 0 -- -- 43
2020-01-17 16:00:00 13.6 11 Oeste 43 Oeste 0 -- -- 45
2020-01-17 15:00:00 14.7 19 Oeste 44 Oeste 0 -- -- 53
2020-01-17 14:00:00 14.5 17 Oeste 44 Sudoeste 0 -- -- 58
2020-01-17 13:00:00 14 15 Oeste 32 Oeste 0 -- -- 62
2020-01-17 12:00:00 12.1 7 Oeste 18 Oeste 0 -- -- 71
2020-01-17 11:00:00 9.1 5 Sudeste 8 Este 0 -- -- 87
2020-01-17 10:00:00 5 0 Calma 5 Noroeste 0 -- -- 100
2020-01-17 09:00:00 2.4 0 Calma 4 Oeste 0 -- -- 100
2020-01-17 08:00:00 3.4 3 Noroeste 8 Noroeste 0 -- -- 100
2020-01-17 07:00:00 3.8 2 Oeste 6 Noroeste 0 -- -- 100
2020-01-17 06:00:00 3.2 4 Oeste 8 Noroeste 0 -- -- 100
2020-01-17 05:00:00 2.7 3 Sudoeste 9 Noroeste 0.4 -- -- 100
2020-01-17 04:00:00 1.3 2 Noroeste 7 Noroeste 0 -- -- 99
2020-01-17 03:00:00 0.7 2 Noroeste 7 Oeste 0 -- -- 98
2020-01-17 02:00:00 1.2 4 Noroeste 8 Oeste 0 -- -- 98
2020-01-17 01:00:00 1.2 2 Oeste 6 Oeste 0 -- -- 96
2020-01-17 00:00:00 1.6 4 Noroeste 8 Noroeste 0 -- -- 95
2020-01-16 23:00:00 2.2 5 Noroeste 8 Noroeste 0 -- -- 96
2020-01-16 22:00:00 2.6 2 Noroeste 7 Noroeste 0 -- -- 92
2020-01-16 21:00:00 3.1 2 Oeste 6 Noroeste 0 -- -- 91
2020-01-16 20:00:00 4.3 3 Noroeste 7 Noroeste 0 -- -- 87
2020-01-16 19:00:00 5.9 0 Calma 4 Oeste 0 -- -- 81
2020-01-16 18:00:00 8.9 0 Calma 9 Sur 0 -- -- 73
2020-01-16 17:00:00 11.4 4 Sudeste 8 Sur 0 -- -- 65
2020-01-16 16:00:00 12.6 5 Sudeste 12 Sur 0 -- -- 59
2020-01-16 15:00:00 13.7 6 Sudeste 12 Sudeste 0 -- -- 57
2020-01-16 14:00:00 13 5 Sudeste 13 Sur 0 -- -- 57
2020-01-16 13:00:00 11.2 8 Sudeste 14 Sudeste 0 -- -- 62
2020-01-16 12:00:00 9.4 5 Este 13 Norte 0 -- -- 68
2020-01-16 11:00:00 6.3 0 Calma 6 Sur 0 -- -- 83
2020-01-16 10:00:00 1 0 Calma 3 Noroeste 0 -- -- 100
2020-01-16 09:00:00 -2.6 0 Calma 5 Noroeste 0 -- -- 99
2020-01-16 08:00:00 -2.9 0 Calma 6 Noroeste 0 -- -- 97
2020-01-16 07:00:00 -2.6 3 Noroeste 7 Noroeste 0 -- -- 98
2020-01-16 06:00:00 -2.8 3 Noroeste 8 Noroeste 0 -- -- 98
2020-01-16 05:00:00 -2.8 0 Calma 3 Noroeste 0 -- -- 97
2020-01-16 04:00:00 -2.4 2 Noroeste 5 Oeste 0 -- -- 97
2020-01-16 03:00:00 -1.9 4 Noroeste 8 Oeste 0 -- -- 97
2020-01-16 02:00:00 -1.7 0 Calma 5 Noroeste 0 -- -- 97
2020-01-16 01:00:00 -1.3 3 Noroeste 5 Oeste 0 -- -- 97
2020-01-16 00:00:00 -0.9 3 Noroeste 7 Noroeste 0 -- -- 97
2020-01-15 23:00:00 -0.6 2 Noroeste 6 Oeste 0 -- -- 96
2020-01-15 22:00:00 -0.2 0 Calma 4 Noroeste 0 -- -- 95
2020-01-15 21:00:00 0.3 0 Calma 3 Norte 0 -- -- 93
2020-01-15 20:00:00 1.2 0 Calma 6 Norte 0 -- -- 90
2020-01-15 19:00:00 2.8 0 Calma 5 Oeste 0 -- -- 86
2020-01-15 18:00:00 5.1 0 Calma 6 Sudeste 0 -- -- 81
2020-01-15 17:00:00 7.5 6 Sudeste 9 Sudeste 0 -- -- 73
2020-01-15 16:00:00 8.4 6 Sudeste 10 Sur 0 -- -- 68
2020-01-15 15:00:00 8 5 Sudeste 12 Sudeste 0 -- -- 72
2020-01-15 14:00:00 5.7 7 Este 16 Sudeste 0 -- -- 82
2020-01-15 13:00:00 3.7 7 Sudeste 12 Sudeste 0 -- -- 88
2020-01-15 12:00:00 1.5 4 Sudeste 9 Este 0 -- -- 93
2020-01-15 11:00:00 0.1 2 Este 4 Sur 0 -- -- 96
2020-01-15 10:00:00 -3.2 0 Calma 4 Noroeste 0 -- -- 100
2020-01-15 09:00:00 -4.6 0 Calma 5 Este 0 -- -- 100
2020-01-15 08:00:00 -4.8 0 Calma 5 Este 0 -- -- 100
2020-01-15 07:00:00 -4.6 0 Calma 5 Este 0 -- -- 100
2020-01-15 06:00:00 -4.5 2 Sur 6 Este 0 -- -- 100
2020-01-15 05:00:00 -4.3 3 Sudeste 6 Sur 0 -- -- 100
2020-01-15 04:00:00 -4.2 0 Calma 3 Nordeste 0 -- -- 98
2020-01-15 03:00:00 -3.7 0 Calma 3 Noroeste 0 -- -- 99
2020-01-15 02:00:00 -3 0 Calma 5 Este 0 -- -- 100
2020-01-15 01:00:00 -2.3 3 Oeste 6 Noroeste 0 -- -- 100
2020-01-15 00:00:00 -1.5 2 Noroeste 5 Noroeste 0 -- -- 100
2020-01-14 23:00:00 -1.4 2 Noroeste 6 Norte 0 -- -- 100
2020-01-14 22:00:00 -1.2 0 Calma 6 Sudoeste 0 -- -- 100
2020-01-14 21:00:00 -0.5 3 Oeste 5 Noroeste 0 -- -- 100
2020-01-14 20:00:00 0 3 Sudoeste 5 Sur 0 -- -- 100
2020-01-14 19:00:00 0.4 4 Sudeste 7 Sudeste 0 -- -- 98
2020-01-14 18:00:00 1.8 2 Sudeste 6 Sur 0 -- -- 91
2020-01-14 17:00:00 4.3 6 Sudeste 12 Sudeste 0 -- -- 87
2020-01-14 16:00:00 5 4 Sudeste 13 Sur 0 -- -- 85
2020-01-14 15:00:00 4.1 3 Sudeste 9 Este 0 -- -- 92
2020-01-14 14:00:00 1 4 Sudeste 9 Sur 0 -- -- 99
2020-01-14 13:00:00 0 3 Sudeste 9 Este 0 -- -- 100
2020-01-14 12:00:00 -1.1 3 Este 8 Este 0 -- -- 100
2020-01-14 11:00:00 -1.9 4 Sudeste 8 Sudeste 0 -- -- 100
2020-01-14 10:00:00 -3.3 0 Calma 5 Noroeste 0 -- -- 100
2020-01-14 09:00:00 -3.7 2 Norte 5 Oeste 0 -- -- 100
2020-01-14 08:00:00 -4.2 0 Calma 7 Sudeste 0 -- -- 100
2020-01-14 07:00:00 -4.3 0 Calma 4 Nordeste 0 -- -- 100
2020-01-14 06:00:00 -4 0 Calma 4 Norte 0 -- -- 100
2020-01-14 05:00:00 -3.7 0 Calma 5 Sur 0 -- -- 100
2020-01-14 04:00:00 -3.2 2 Sudeste 6 Sudeste 0 -- -- 100
2020-01-14 03:00:00 -2.7 0 Calma 4 Noroeste 0 -- -- 100
2020-01-14 02:00:00 -2.2 3 Nordeste 6 Noroeste 0 -- -- 100
2020-01-14 01:00:00 -1.4 0 Calma 5 Oeste 0 -- -- 100
2020-01-14 00:00:00 -1 3 Norte 6 Noroeste 0 -- -- 100
2020-01-13 23:00:00 -0.7 0 Calma 5 Norte 0 -- -- 100
2020-01-13 22:00:00 -0.4 3 Norte 6 Norte 0 -- -- 100
2020-01-13 21:00:00 -0.2 3 Norte 6 Nordeste 0 -- -- 100
2020-01-13 20:00:00 0.1 0 Calma 6 Nordeste 0 -- -- 100
2020-01-13 19:00:00 -0.2 0 Calma 4 Sudeste 0 -- -- 98
2020-01-13 18:00:00 0.9 0 Calma 5 Sudeste 0 -- -- 94
2020-01-13 17:00:00 1.9 3 Sudeste 8 Sudeste 0 -- -- 95
2020-01-13 16:00:00 1.8 4 Sudeste 8 Este 0 -- -- 96
2020-01-13 15:00:00 1.5 3 Este 8 Sudeste 0 -- -- 99
2020-01-13 14:00:00 0.4 2 Norte 6 Sudoeste 0 -- -- 100
2020-01-13 13:00:00 -0.3 2 Noroeste 6 Este 0 -- -- 100
2020-01-13 12:00:00 -1.4 2 Sudeste 8 Sur 0 -- -- 100
2020-01-13 11:00:00 -2.3 3 Este 6 Este 0 -- -- 100
2020-01-13 10:00:00 -3.2 2 Noroeste 5 Norte 0 -- -- 100
2020-01-13 09:00:00 -3.7 3 Noroeste 5 Noroeste 0 -- -- 100
2020-01-13 08:00:00 -3.9 0 Calma 4 Oeste 0 -- -- 100
2020-01-13 07:00:00 -4.1 0 Calma 4 Noroeste 0 -- -- 100
2020-01-13 06:00:00 -4.1 0 Calma 4 Este 0 -- -- 100
2020-01-13 05:00:00 -3.8 0 Calma 6 Oeste 0 -- -- 100
2020-01-13 04:00:00 -3.1 4 Oeste 8 Oeste 0 -- -- 100
2020-01-13 03:00:00 -2.2 4 Noroeste 7 Noroeste 0 -- -- 100
2020-01-13 02:00:00 -1.5 0 Calma 5 Noroeste 0 -- -- 100
2020-01-13 01:00:00 -1.4 2 Oeste 6 Sudoeste 0 -- -- 100
2020-01-13 00:00:00 -1 3 Sudoeste 6 Sudoeste 0 -- -- 100
2020-01-12 23:00:00 -0.5 0 Calma 6 Noroeste 0 -- -- 100
2020-01-12 22:00:00 0.1 3 Noroeste 12 Noroeste 0 -- -- 100
2020-01-12 21:00:00 0.8 4 Oeste 10 Noroeste 0 -- -- 100
2020-01-12 20:00:00 1.3 5 Norte 9 Norte 0 -- -- 100
2020-01-12 19:00:00 1.7 5 Norte 8 Norte 0 -- -- 100
2020-01-12 18:00:00 1.9 3 Sudoeste 7 Sudoeste 0 -- -- 99
2020-01-12 17:00:00 2.1 4 Sur 8 Sur 0 -- -- 99
2020-01-12 16:00:00 2.3 4 Sudeste 9 Sur 0 -- -- 97
2020-01-12 15:00:00 2.6 5 Sur 9 Sudeste 0 -- -- 97
2020-01-12 14:00:00 2.7 5 Sudeste 9 Sudeste 0 -- -- 98
2020-01-12 13:00:00 2.3 2 Este 6 Sudeste 0 -- -- 100
2020-01-12 12:00:00 1.7 0 Calma 4 Noroeste 0 -- -- 100
2020-01-12 11:00:00 0 0 Calma 3 Este 0 -- -- 100
2020-01-12 10:00:00 -1.1 0 Calma 3 Oeste 0 -- -- 100
2020-01-12 09:00:00 -2.2 0 Calma 0 Calma 0 -- -- 100
2020-01-12 08:00:00 -3.4 0 Calma 3 Oeste 0 -- -- 99
2020-01-12 07:00:00 -4.3 0 Calma 5 Noroeste 0 -- -- 96
2020-01-12 06:00:00 -3.9 4 Noroeste 6 Noroeste 0 -- -- 97
2020-01-12 05:00:00 -4 2 Noroeste 5 Noroeste 0 -- -- 96
2020-01-12 04:00:00 -3.7 2 Noroeste 5 Noroeste 0 -- -- 96
2020-01-12 03:00:00 -3.3 3 Noroeste 5 Noroeste 0 -- -- 96
2020-01-12 02:00:00 -3.1 0 Calma 5 Noroeste 0 -- -- 96
2020-01-12 01:00:00 -2.6 3 Noroeste 5 Noroeste 0 -- -- 96
2020-01-12 00:00:00 -2.3 0 Calma 5 Noroeste 0 -- -- 95
2020-01-11 23:00:00 -1.7 2 Noroeste 6 Noroeste 0 -- -- 95
2020-01-11 22:00:00 -0.8 5 Noroeste 7 Noroeste 0 -- -- 95
2020-01-11 21:00:00 -0.3 4 Noroeste 6 Noroeste 0 -- -- 94
2020-01-11 20:00:00 0.7 3 Noroeste 6 Noroeste 0 -- -- 92
2020-01-11 19:00:00 2.1 3 Noroeste 5 Noroeste 0 -- -- 88
2020-01-11 18:00:00 4.5 0 Calma 7 Sudeste 0 -- -- 84
2020-01-11 17:00:00 6.4 4 Sudeste 9 Sur 0 -- -- 74
2020-01-11 16:00:00 6.7 8 Sudeste 11 Sudeste 0 -- -- 73
2020-01-11 15:00:00 6.5 5 Sudeste 9 Sudeste 0 -- -- 76
2020-01-11 14:00:00 4.4 2 Oeste 10 Este 0 -- -- 88
2020-01-11 13:00:00 3.2 5 Sudeste 11 Sudeste 0 -- -- 96
2020-01-11 12:00:00 1.9 4 Sur 7 Noroeste 0 -- -- 100
2020-01-11 11:00:00 0.7 4 Noroeste 8 Noroeste 0 -- -- 100
2020-01-11 10:00:00 -0.5 4 Noroeste 12 Oeste 0 -- -- 100
2020-01-11 09:00:00 -0.1 4 Noroeste 10 Noroeste 0 -- -- 100
2020-01-11 08:00:00 0.2 5 Oeste 9 Noroeste 0 -- -- 100
2020-01-11 07:00:00 -0.3 2 Noroeste 9 Oeste 0 -- -- 100
2020-01-11 06:00:00 -1 6 Oeste 10 Oeste 0 -- -- 100
2020-01-11 05:00:00 -2.5 0 Calma 4 Oeste 0 -- -- 98
2020-01-11 04:00:00 -2.4 0 Calma 6 Noroeste 0 -- -- 97
2020-01-11 03:00:00 -1.8 0 Calma 6 Noroeste 0 -- -- 96
2020-01-11 02:00:00 -1 0 Calma 7 Norte 0 -- -- 97
2020-01-11 01:00:00 -0.2 3 Norte 10 Noroeste 0 -- -- 97
2020-01-11 00:00:00 -0.2 5 Noroeste 8 Noroeste 0 -- -- 97
2020-01-10 23:00:00 0.3 2 Oeste 7 Noroeste 0 -- -- 96
2020-01-10 22:00:00 0.8 2 Norte 6 Noroeste 0 -- -- 95
2020-01-10 21:00:00 1.7 0 Calma 5 Noroeste 0 -- -- 93
2020-01-10 20:00:00 2.9 0 Calma 3 Noroeste 0 -- -- 91
2020-01-10 19:00:00 4.5 0 Calma 3 Norte 0 -- -- 88
2020-01-10 18:00:00 6.8 0 Calma 5 Sur 0 -- -- 84
2020-01-10 17:00:00 8.8 4 Sudeste 11 Sur 0 -- -- 77
2020-01-10 16:00:00 9.3 7 Sur 19 Sudeste 0 -- -- 76
2020-01-10 15:00:00 10.1 8 Sudeste 19 Sudeste 0 -- -- 74
2020-01-10 14:00:00 9.7 8 Sudeste 14 Este 0 -- -- 74
2020-01-10 13:00:00 9.6 4 Sur 10 Sudoeste 0 -- -- 77
2020-01-10 12:00:00 7.1 4 Sudoeste 13 Norte 0 -- -- 89
2020-01-10 11:00:00 5.7 6 Noroeste 13 Oeste 0 -- -- 97
2020-01-10 10:00:00 4.8 4 Noroeste 8 Noroeste 0 -- -- 100
2020-01-10 09:00:00 4.4 2 Oeste 9 Sudeste 0 -- -- 100
2020-01-10 08:00:00 4.3 5 Sudeste 13 Sudeste 0 -- -- 100
2020-01-10 07:00:00 4.4 6 Sudeste 14 Este 0 -- -- 100
2020-01-10 06:00:00 4.4 4 Sudeste 12 Sudeste 0 -- -- 100
2020-01-10 05:00:00 4.7 5 Sur 10 Sur 0 -- -- 100
2020-01-10 04:00:00 4.7 3 Sudeste 8 Sudeste 0 -- -- 100
2020-01-10 03:00:00 4.8 3 Sudeste 6 Noroeste 0 -- -- 100
2020-01-10 02:00:00 4.4 3 Oeste 6 Noroeste 0 -- -- 100
2020-01-10 01:00:00 4 0 Calma 4 Noroeste 0 -- -- 100
2020-01-10 00:00:00 3.7 0 Calma 5 Sudoeste 0 -- -- 100
2020-01-09 23:00:00 3.4 0 Calma 5 Este 0 -- -- 100
2020-01-09 22:00:00 3.3 3 Sudeste 8 Sudeste 0 -- -- 100
2020-01-09 21:00:00 3.6 0 Calma 6 Oeste 0 -- -- 100
2020-01-09 20:00:00 4 3 Sudeste 6 Noroeste 0 -- -- 100
2020-01-09 19:00:00 4.3 0 Calma 10 Este 0 -- -- 100
2020-01-09 18:00:00 4.8 3 Este 6 Sudeste 0 -- -- 98
2020-01-09 17:00:00 5.2 3 Sudeste 8 Sudeste 0 -- -- 95
2020-01-09 16:00:00 5.6 3 Sur 10 Este 0 -- -- 92
2020-01-09 15:00:00 6.2 8 Sudeste 13 Sudeste 0 -- -- 88
2020-01-09 14:00:00 5.6 7 Este 13 Este 0 -- -- 88
2020-01-09 13:00:00 4.8 6 Este 12 Este 0 -- -- 95
2020-01-09 12:00:00 1.6 5 Este 10 Sudeste 0 -- -- 100
2020-01-09 11:00:00 0.4 6 Sudeste 10 Este 0 -- -- 100
2020-01-09 10:00:00 -0.6 3 Sudeste 7 Sudeste 0 -- -- 100
2020-01-09 09:00:00 -2.3 0 Calma 3 Este 0 -- -- 100
2020-01-09 08:00:00 -2.1 0 Calma 4 Este 0 -- -- 100
2020-01-09 07:00:00 -1.7 0 Calma 3 Noroeste 0 -- -- 100
2020-01-09 06:00:00 -1.3 0 Calma 5 Sudeste 0 -- -- 100
2020-01-09 05:00:00 -1 0 Calma 7 Sudeste 0 -- -- 100
2020-01-09 04:00:00 -0.4 2 Oeste 4 Noroeste 0 -- -- 100
2020-01-09 03:00:00 -0.1 0 Calma 4 Sur 0 -- -- 100
2020-01-09 02:00:00 0.5 2 Sur 5 Sur 0 -- -- 100
2020-01-09 01:00:00 0.9 0 Calma 5 Oeste 0 -- -- 100
2020-01-09 00:00:00 0.8 0 Calma 5 Oeste 0 -- -- 100
2020-01-08 23:00:00 0.9 2 Sur 5 Sudeste 0 -- -- 100
2020-01-08 22:00:00 1.2 4 Sudeste 11 Este 0 -- -- 99
2020-01-08 21:00:00 1.5 0 Calma 4 Oeste 0 -- -- 94
2020-01-08 20:00:00 2.7 0 Calma 4 Oeste 0 -- -- 91
2020-01-08 19:00:00 4 0 Calma 4 Oeste 0 -- -- 89
2020-01-08 18:00:00 6.1 0 Calma 5 Sur 0 -- -- 84
2020-01-08 17:00:00 8 3 Sur 9 Sudeste 0 -- -- 79
2020-01-08 16:00:00 8.8 5 Sudeste 11 Este 0 -- -- 76
2020-01-08 15:00:00 8.3 5 Este 10 Sudeste 0 -- -- 76
2020-01-08 14:00:00 6.2 0 Calma 9 Sudoeste 0 -- -- 84
2020-01-08 13:00:00 3.8 3 Sudeste 8 Sudeste 0 -- -- 92
2020-01-08 12:00:00 2.9 4 Sudeste 9 Sudoeste 0 -- -- 95
2020-01-08 11:00:00 2.3 0 Calma 6 Nordeste 0 -- -- 100
2020-01-08 10:00:00 1.6 2 Sudeste 9 Sudeste 0 -- -- 100
2020-01-08 09:00:00 1.9 0 Calma 8 Este 0 -- -- 100
2020-01-08 08:00:00 2 2 Oeste 6 Este 0 -- -- 99
2020-01-08 07:00:00 2.1 2 Nordeste 6 Norte 0 -- -- 98
2020-01-08 06:00:00 2.2 0 Calma 4 Sur 0 -- -- 97
2020-01-08 05:00:00 2.2 3 Norte 8 Norte 0 -- -- 96
2020-01-08 04:00:00 2.4 3 Norte 6 Norte 0 -- -- 97
2020-01-08 03:00:00 2.4 4 Noroeste 9 Noroeste 0 -- -- 97
2020-01-08 02:00:00 2.6 3 Noroeste 8 Noroeste 0 -- -- 98
2020-01-08 01:00:00 2.7 2 Oeste 8 Noroeste 0 -- -- 98
2020-01-08 00:00:00 2.6 3 Oeste 10 Norte 0 -- -- 98
2020-01-07 23:00:00 2.8 3 Norte 8 Norte 0 -- -- 100
2020-01-07 22:00:00 2.9 0 Calma 7 Noroeste 0 -- -- 99
2020-01-07 21:00:00 3 0 Calma 6 Nordeste 0 -- -- 99
2020-01-07 20:00:00 3.1 2 Sudeste 9 Sur 0 -- -- 98
2020-01-07 19:00:00 3.3 4 Sur 6 Sudeste 0 -- -- 97
2020-01-07 18:00:00 3.4 4 Nordeste 9 Nordeste 0 -- -- 96
2020-01-07 17:00:00 3.7 3 Sudeste 8 Sudeste 0 -- -- 95
2020-01-07 16:00:00 4.1 2 Sur 8 Sur 0 -- -- 93
2020-01-07 15:00:00 4.1 4 Sudeste 11 Este 0 -- -- 92
2020-01-07 14:00:00 4.1 4 Este 9 Este 0 -- -- 92
2020-01-07 13:00:00 4 3 Nordeste 6 Nordeste 0 -- -- 92
2020-01-07 12:00:00 3.7 0 Calma 8 Sudeste 0 -- -- 92
2020-01-07 11:00:00 3.6 3 Nordeste 9 Nordeste 0 -- -- 95
2020-01-07 10:00:00 3.4 4 Nordeste 9 Nordeste 0 -- -- 95
2020-01-07 09:00:00 3.3 5 Nordeste 10 Nordeste 0 -- -- 96
2020-01-07 08:00:00 3.5 4 Nordeste 8 Nordeste 0 -- -- 98
2020-01-07 07:00:00 3.6 0 Calma 5 Sur 0 -- -- 99
2020-01-07 06:00:00 3.5 3 Este 7 Sudoeste 0 -- -- 99
2020-01-07 05:00:00 3.6 0 Calma 7 Sudeste 0 -- -- 99
2020-01-07 04:00:00 3.7 0 Calma 10 Sudeste 0 -- -- 99
2020-01-07 03:00:00 3.7 4 Sudeste 9 Sur 0 -- -- 100
2020-01-07 02:00:00 3.7 0 Calma 4 Norte 0.2 -- -- 99
2020-01-07 01:00:00 3.8 0 Calma 12 Sudoeste 0 -- -- 98
2020-01-07 00:00:00 4.5 4 Sudoeste 9 Oeste 0 -- -- 99
2020-01-06 23:00:00 4.7 0 Calma 9 Sudoeste 0 -- -- 98
2020-01-06 22:00:00 5 2 Sudeste 6 Sudeste 0 -- -- 97
2020-01-06 21:00:00 5.1 0 Calma 7 Sur 0 -- -- 96
2020-01-06 20:00:00 5.4 4 Sur 9 Sur 0 -- -- 95
2020-01-06 19:00:00 5.7 5 Este 10 Sudeste 0 -- -- 92
2020-01-06 18:00:00 6.4 4 Sudeste 10 Sudeste 0 -- -- 90
2020-01-06 17:00:00 7.3 5 Sur 14 Sur 0 -- -- 86
2020-01-06 16:00:00 8.9 5 Sudoeste 12 Sudoeste 0 -- -- 80
2020-01-06 15:00:00 9.5 8 Sur 13 Sur 0 -- -- 76
2020-01-06 14:00:00 9 9 Sur 15 Sur 0 -- -- 75
2020-01-06 13:00:00 9.6 8 Sudeste 14 Sur 0 -- -- 73
2020-01-06 12:00:00 8.7 3 Sudeste 8 Sur 0 -- -- 68
2020-01-06 11:00:00 5.7 3 Sudeste 5 Sudeste 0 -- -- 81
2020-01-06 10:00:00 1.7 0 Calma 2 Sur 0 -- -- 100